Time;durP1;ratioP1;P1;durP2;ratioP2;P2;SDS_P1;SDS_P2;PMS_P1;PMS_P2;Temp;Humidity;BMP_temperature;BMP_pressure;BME280_temperature;BME280_humidity;BME280_pressure;Samples;Min_cycle;Max_cycle;Signal;HPM_P1;HPM_P2
2023/03/26 00:00:22;;;;;;;;;;;;;;;;;;1031875;28;2989;-50
2023/03/26 00:01:14;;;;;;;;;;;;;;;;;;1034092;28;4129;-53
2023/03/26 00:01:45;;;;;;;;;;;;;;;;;;1030751;28;4122;-51
2023/03/26 00:02:16;;;;;;;;;;;;;;;;;;1029663;28;3301;-49
2023/03/26 00:02:46;;;;;;;;;;;;;;;;;;1032455;28;3776;-51
2023/03/26 00:03:17;;;;;;;;;;;;;;;;;;1032558;28;3001;-50
2023/03/26 00:03:52;;;;;;;;;;;;;;;;;;1033405;28;4089;-50
2023/03/26 00:04:24;;;;;;;;;;;;;;;;;;1032274;28;2978;-50
2023/03/26 00:04:54;;;;;;;;;;;;;;;;;;1034585;28;3919;-50
2023/03/26 00:05:25;;;;;;;;;;;;;;;;;;1035441;28;2744;-51
2023/03/26 00:06:08;;;;;;;;;;;;;;;;;;1037337;28;3987;-49
2023/03/26 00:06:40;;;;;;;;;;;;;;;;;;1035719;28;3886;-49
2023/03/26 00:07:11;;;;;;;;;;;;;;;;;;1032603;28;3036;-51
2023/03/26 00:07:41;;;;;;;;;;;;;;;;;;1032273;28;3971;-51
2023/03/26 00:08:12;;;;;;;;;;;;;;;;;;1031852;28;2969;-58
2023/03/26 00:08:43;;;;;;;;;;;;;;;;;;1032121;28;3968;-54
2023/03/26 00:09:15;;;;;;;;;;;;;;;;;;1033286;28;3115;-51
2023/03/26 00:09:45;;;;;;;;;;;;;;;;;;1033814;28;4081;-49
2023/03/26 00:10:15;;;;;;;;;;;;;;;;;;1033123;28;2714;-52
2023/03/26 00:10:45;;;;;;;;;;;;;;;;;;1033008;28;4034;-50
2023/03/26 00:11:17;;;;;;;;;;;;;;;;;;1031233;28;2003;-49
2023/03/26 00:11:47;;;;;;;;;;;;;;;;;;1031564;28;4046;-52
2023/03/26 00:12:17;;;;;;;;;;;;;;;;;;1030064;28;2823;-51
2023/03/26 00:12:47;;;;;;;;;;;;;;;;;;1029807;28;4110;-53
2023/03/26 00:13:18;;;;;;;;;;;;;;;;;;1034524;28;1717;-54
2023/03/26 00:13:48;;;;;;;;;;;;;;;;;;1033693;28;4251;-50
2023/03/26 00:14:18;;;;;;;;;;;;;;;;;;1034866;28;1714;-53
2023/03/26 00:14:50;;;;;;;;;;;;;;;;;;1030901;28;4218;-50
2023/03/26 00:15:20;;;;;;;;;;;;;;;;;;1031070;28;2841;-51
2023/03/26 00:15:51;;;;;;;;;;;;;;;;;;1035580;28;4246;-48
2023/03/26 00:16:22;;;;;;;;;;;;;;;;;;1029193;28;2838;-49
2023/03/26 00:16:53;;;;;;;;;;;;;;;;;;1028669;28;3927;-50
2023/03/26 00:17:23;;;;;;;;;;;;;;;;;;1031569;28;1807;-48
2023/03/26 00:17:55;;;;;;;;;;;;;;;;;;1033003;28;4108;-51
2023/03/26 00:18:30;;;;;;;;;;;;;;;;;;1033635;28;1879;-54
2023/03/26 00:19:00;;;;;;;;;;;;;;;;;;1032147;28;4041;-51
2023/03/26 00:19:31;;;;;;;;;;;;;;;;;;1032863;28;4003;-50
2023/03/26 00:20:02;;;;;;;;;;;;;;;;;;1033606;28;3043;-52
2023/03/26 00:20:32;;;;;;;;;;;;;;;;;;1032736;28;5294;-48
2023/03/26 00:21:04;;;;;;;;;;;;;;;;;;1034981;28;1663;-52
2023/03/26 00:21:34;;;;;;;;;;;;;;;;;;1032288;28;3977;-50
2023/03/26 00:22:04;;;;;;;;;;;;;;;;;;1033851;28;3115;-50
2023/03/26 00:22:34;;;;;;;;;;;;;;;;;;1031761;28;3915;-52
2023/03/26 00:23:06;;;;;;;;;;;;;;;;;;1033108;28;2399;-50
2023/03/26 00:23:37;;;;;;;;;;;;;;;;;;1034112;28;4048;-51
2023/03/26 00:24:13;;;;;;;;;;;;;;;;;;1033316;28;2656;-52
2023/03/26 00:24:46;;;;;;;;;;;;;;;;;;1033082;28;3812;-50
2023/03/26 00:25:16;;;;;;;;;;;;;;;;;;1035061;28;1678;-51
2023/03/26 00:25:49;;;;;;;;;;;;;;;;;;1034661;28;3965;-49
2023/03/26 00:26:20;;;;;;;;;;;;;;;;;;1033062;28;2301;-49
2023/03/26 00:26:52;;;;;;;;;;;;;;;;;;1033976;28;3835;-49
2023/03/26 00:27:22;;;;;;;;;;;;;;;;;;1034845;28;1997;-50
2023/03/26 00:27:52;;;;;;;;;;;;;;;;;;1034644;28;3910;-52
2023/03/26 00:28:23;;;;;;;;;;;;;;;;;;1035381;28;2156;-49
2023/03/26 00:28:53;;;;;;;;;;;;;;;;;;1032877;28;4085;-50
2023/03/26 00:29:26;;;;;;;;;;;;;;;;;;1034034;28;2940;-52
2023/03/26 00:29:58;;;;;;;;;;;;;;;;;;1031237;28;3957;-48
2023/03/26 00:30:28;;;;;;;;;;;;;;;;;;1030123;28;4403;-50
2023/03/26 00:31:00;;;;;;;;;;;;;;;;;;1034077;28;4000;-50
2023/03/26 00:31:30;;;;;;;;;;;;;;;;;;1034046;28;3877;-51
2023/03/26 00:32:01;;;;;;;;;;;;;;;;;;1031939;28;3039;-51
2023/03/26 00:32:31;;;;;;;;;;;;;;;;;;1032742;28;4038;-50
2023/03/26 00:33:01;;;;;;;;;;;;;;;;;;1033115;28;3296;-52
2023/03/26 00:33:32;;;;;;;;;;;;;;;;;;1032506;28;4096;-51
2023/03/26 00:34:04;;;;;;;;;;;;;;;;;;1032620;28;3217;-50
2023/03/26 00:34:34;;;;;;;;;;;;;;;;;;1031281;28;3820;-53
2023/03/26 00:35:05;;;;;;;;;;;;;;;;;;1032855;28;2782;-51
2023/03/26 00:35:38;;;;;;;;;;;;;;;;;;1034625;28;4167;-50
2023/03/26 00:36:10;;;;;;;;;;;;;;;;;;1034381;28;2900;-50
2023/03/26 00:36:41;;;;;;;;;;;;;;;;;;1033976;28;4035;-51
2023/03/26 00:37:13;;;;;;;;;;;;;;;;;;1032958;28;2663;-49
2023/03/26 00:37:44;;;;;;;;;;;;;;;;;;1034561;28;4041;-49
2023/03/26 00:38:16;;;;;;;;;;;;;;;;;;1031229;28;2976;-49
2023/03/26 00:38:47;;;;;;;;;;;;;;;;;;1033660;28;4033;-48
2023/03/26 00:39:17;;;;;;;;;;;;;;;;;;1030968;28;2928;-51
2023/03/26 00:39:48;;;;;;;;;;;;;;;;;;1030894;28;4339;-51
2023/03/26 00:40:18;;;;;;;;;;;;;;;;;;1032986;28;3074;-51
2023/03/26 00:40:49;;;;;;;;;;;;;;;;;;1032382;28;4097;-49
2023/03/26 00:41:24;;;;;;;;;;;;;;;;;;1034662;28;3318;-50
2023/03/26 00:41:54;;;;;;;;;;;;;;;;;;1029105;28;4071;-49
2023/03/26 00:42:25;;;;;;;;;;;;;;;;;;1031514;28;2863;-53
2023/03/26 00:42:55;;;;;;;;;;;;;;;;;;1030949;28;3766;-50
2023/03/26 00:43:25;;;;;;;;;;;;;;;;;;1033642;28;2936;-52
2023/03/26 00:43:57;;;;;;;;;;;;;;;;;;1031732;28;3800;-52
2023/03/26 00:44:27;;;;;;;;;;;;;;;;;;1033155;28;2814;-50
2023/03/26 00:44:58;;;;;;;;;;;;;;;;;;1030919;28;4037;-49
2023/03/26 00:45:28;;;;;;;;;;;;;;;;;;1030700;28;3257;-49
2023/03/26 00:45:59;;;;;;;;;;;;;;;;;;1031552;28;4003;-50
2023/03/26 00:46:30;;;;;;;;;;;;;;;;;;1034519;28;2980;-49
2023/03/26 00:47:00;;;;;;;;;;;;;;;;;;1030211;28;3837;-52
2023/03/26 00:47:30;;;;;;;;;;;;;;;;;;1030129;28;3989;-51
2023/03/26 00:48:01;;;;;;;;;;;;;;;;;;1033383;28;2718;-51
2023/03/26 00:48:33;;;;;;;;;;;;;;;;;;1031700;28;3985;-51
2023/03/26 00:49:03;;;;;;;;;;;;;;;;;;1031668;28;2698;-52
2023/03/26 00:49:33;;;;;;;;;;;;;;;;;;1030777;28;4015;-50
2023/03/26 00:50:04;;;;;;;;;;;;;;;;;;1033807;28;2779;-52
2023/03/26 00:50:35;;;;;;;;;;;;;;;;;;1031744;28;3929;-50
2023/03/26 00:51:05;;;;;;;;;;;;;;;;;;1035260;28;1790;-51
2023/03/26 00:51:37;;;;;;;;;;;;;;;;;;1030309;28;5011;-48
2023/03/26 00:52:08;;;;;;;;;;;;;;;;;;1032536;28;2239;-47
2023/03/26 00:52:38;;;;;;;;;;;;;;;;;;1032184;28;4093;-48
2023/03/26 00:53:10;;;;;;;;;;;;;;;;;;1031172;28;2679;-50
2023/03/26 00:53:41;;;;;;;;;;;;;;;;;;1029628;28;4078;-52
2023/03/26 00:54:12;;;;;;;;;;;;;;;;;;1031164;28;3131;-51
2023/03/26 00:54:42;;;;;;;;;;;;;;;;;;1031023;28;3919;-50
2023/03/26 00:55:12;;;;;;;;;;;;;;;;;;1033202;28;1894;-49
2023/03/26 00:55:44;;;;;;;;;;;;;;;;;;1032076;28;4147;-51
2023/03/26 00:56:14;;;;;;;;;;;;;;;;;;1034480;28;1664;-49
2023/03/26 00:56:45;;;;;;;;;;;;;;;;;;1033339;28;3902;-49
2023/03/26 00:57:15;;;;;;;;;;;;;;;;;;1035108;28;1830;-50
2023/03/26 00:57:46;;;;;;;;;;;;;;;;;;1033307;28;3968;-51
2023/03/26 00:58:16;;;;;;;;;;;;;;;;;;1035162;28;1655;-49
2023/03/26 00:58:48;;;;;;;;;;;;;;;;;;1031737;28;3895;-52
2023/03/26 00:59:21;;;;;;;;;;;;;;;;;;1034130;28;2803;-49
2023/03/26 00:59:51;;;;;;;;;;;;;;;;;;1033514;28;3879;-52
2023/03/26 01:00:30;;;;;;;;;;;;;;;;;;1032337;28;2890;-51
2023/03/26 01:01:02;;;;;;;;;;;;;;;;;;1031311;28;3825;-50
2023/03/26 01:01:32;;;;;;;;;;;;;;;;;;1030233;28;3984;-51
2023/03/26 01:02:03;;;;;;;;;;;;;;;;;;1032606;28;3027;-49
2023/03/26 01:02:33;;;;;;;;;;;;;;;;;;1032496;28;3815;-50
2023/03/26 01:03:04;;;;;;;;;;;;;;;;;;1033222;28;3021;-50
2023/03/26 01:03:36;;;;;;;;;;;;;;;;;;1030802;28;3913;-52
2023/03/26 01:04:19;;;;;;;;;;;;;;;;;;1034741;28;2096;-54
2023/03/26 01:04:54;;;;;;;;;;;;;;;;;;1032277;28;4077;-51
2023/03/26 01:05:33;;;;;;;;;;;;;;;;;;1032540;28;1887;-54
2023/03/26 01:06:06;;;;;;;;;;;;;;;;;;1034793;28;3666;-49
2023/03/26 01:06:40;;;;;;;;;;;;;;;;;;1033550;28;3994;-51
2023/03/26 01:07:21;;;;;;;;;;;;;;;;;;1034701;28;1950;-51
2023/03/26 01:07:51;;;;;;;;;;;;;;;;;;1034769;28;4069;-53
2023/03/26 01:08:32;;;;;;;;;;;;;;;;;;1031620;28;2825;-50
2023/03/26 01:09:14;;;;;;;;;;;;;;;;;;1030796;28;4230;-50
2023/03/26 01:09:49;;;;;;;;;;;;;;;;;;1032349;28;3916;-50
2023/03/26 01:10:21;;;;;;;;;;;;;;;;;;1035030;28;1580;-50
2023/03/26 01:11:01;;;;;;;;;;;;;;;;;;1033368;28;3808;-49
2023/03/26 01:11:33;;;;;;;;;;;;;;;;;;1033472;28;4133;-49
2023/03/26 01:12:07;;;;;;;;;;;;;;;;;;1033010;28;2713;-49
2023/03/26 01:12:37;;;;;;;;;;;;;;;;;;1034030;28;4084;-52
2023/03/26 01:13:08;;;;;;;;;;;;;;;;;;1034430;28;1982;-51
2023/03/26 01:13:41;;;;;;;;;;;;;;;;;;1033741;28;4056;-52
2023/03/26 01:14:14;;;;;;;;;;;;;;;;;;1032893;28;3164;-50
2023/03/26 01:14:46;;;;;;;;;;;;;;;;;;1033113;28;4061;-51
2023/03/26 01:15:16;;;;;;;;;;;;;;;;;;1033739;28;2236;-51
2023/03/26 01:15:49;;;;;;;;;;;;;;;;;;1033217;28;4075;-51
2023/03/26 01:16:38;;;;;;;;;;;;;;;;;;1033368;28;3056;-53
2023/03/26 01:17:08;;;;;;;;;;;;;;;;;;1032078;28;3976;-49
2023/03/26 01:17:38;;;;;;;;;;;;;;;;;;1034164;28;4017;-52
2023/03/26 01:18:12;;;;;;;;;;;;;;;;;;1033136;28;2885;-51
2023/03/26 01:18:44;;;;;;;;;;;;;;;;;;1033199;28;3929;-50
2023/03/26 01:19:36;;;;;;;;;;;;;;;;;;1033326;28;2328;-49
2023/03/26 01:20:33;;;;;;;;;;;;;;;;;;1031404;28;3694;-49
2023/03/26 01:21:04;;;;;;;;;;;;;;;;;;1038262;28;4039;-51
2023/03/26 01:21:35;;;;;;;;;;;;;;;;;;1035285;28;3900;-50
2023/03/26 01:22:08;;;;;;;;;;;;;;;;;;1034366;28;3145;-52
2023/03/26 01:22:41;;;;;;;;;;;;;;;;;;1037593;28;4356;-50
2023/03/26 01:23:14;;;;;;;;;;;;;;;;;;1034275;28;2788;-52
2023/03/26 01:23:47;;;;;;;;;;;;;;;;;;1038092;28;4250;-48
2023/03/26 01:24:18;;;;;;;;;;;;;;;;;;1037107;28;2475;-50
2023/03/26 01:24:52;;;;;;;;;;;;;;;;;;1036103;28;4040;-51
2023/03/26 01:25:24;;;;;;;;;;;;;;;;;;1036010;28;2998;-52
2023/03/26 01:26:07;;;;;;;;;;;;;;;;;;1037000;28;4294;-48
2023/03/26 01:26:43;;;;;;;;;;;;;;;;;;1037856;28;4121;-54
2023/03/26 01:27:26;;;;;;;;;;;;;;;;;;1035361;28;2838;-50
2023/03/26 01:27:57;;;;;;;;;;;;;;;;;;1035753;28;4126;-53
2023/03/26 01:28:29;;;;;;;;;;;;;;;;;;1035515;28;2893;-50
2023/03/26 01:29:01;;;;;;;;;;;;;;;;;;1034925;28;4016;-49
2023/03/26 01:29:38;;;;;;;;;;;;;;;;;;1036653;28;4101;-52
2023/03/26 01:30:09;;;;;;;;;;;;;;;;;;1036411;28;1877;-50
2023/03/26 01:30:57;;;;;;;;;;;;;;;;;;1035604;28;4266;-49
2023/03/26 01:31:35;;;;;;;;;;;;;;;;;;1037196;28;2886;-52
2023/03/26 01:32:24;;;;;;;;;;;;;;;;;;1032813;28;3690;-48
2023/03/26 01:33:03;;;;;;;;;;;;;;;;;;1033325;28;3943;-49
2023/03/26 01:33:47;;;;;;;;;;;;;;;;;;1032125;28;3908;-51
2023/03/26 01:34:36;;;;;;;;;;;;;;;;;;1033359;28;3013;-52
2023/03/26 01:35:07;;;;;;;;;;;;;;;;;;1030452;28;4003;-53
2023/03/26 01:35:37;;;;;;;;;;;;;;;;;;1030995;28;3819;-48
2023/03/26 01:36:07;;;;;;;;;;;;;;;;;;1034555;28;2995;-50
2023/03/26 01:36:46;;;;;;;;;;;;;;;;;;1036933;28;4059;-48
2023/03/26 01:37:26;;;;;;;;;;;;;;;;;;1033866;28;2956;-51
2023/03/26 01:38:09;;;;;;;;;;;;;;;;;;1035532;28;4052;-50
2023/03/26 01:38:47;;;;;;;;;;;;;;;;;;1033132;28;4070;-50
2023/03/26 01:39:20;;;;;;;;;;;;;;;;;;1038423;28;2102;-51
2023/03/26 01:39:55;;;;;;;;;;;;;;;;;;1037736;28;3961;-51
2023/03/26 01:40:30;;;;;;;;;;;;;;;;;;1033951;28;2557;-48
2023/03/26 01:41:08;;;;;;;;;;;;;;;;;;1031351;28;3816;-54
2023/03/26 01:41:43;;;;;;;;;;;;;;;;;;1035382;28;3799;-50
2023/03/26 01:42:17;;;;;;;;;;;;;;;;;;1037504;28;2260;-51
2023/03/26 01:42:57;;;;;;;;;;;;;;;;;;1038029;28;4050;-50
2023/03/26 01:43:27;;;;;;;;;;;;;;;;;;1037210;28;2799;-52
2023/03/26 01:44:30;;;;;;;;;;;;;;;;;;1035821;28;4103;-50
2023/03/26 01:45:22;;;;;;;;;;;;;;;;;;1037352;28;3850;-50
2023/03/26 01:45:53;;;;;;;;;;;;;;;;;;1037498;28;3879;-52
2023/03/26 01:46:24;;;;;;;;;;;;;;;;;;1038267;28;1800;-51
2023/03/26 01:46:55;;;;;;;;;;;;;;;;;;1036943;28;3975;-53
2023/03/26 01:47:26;;;;;;;;;;;;;;;;;;1036622;28;3201;-50
2023/03/26 01:47:57;;;;;;;;;;;;;;;;;;1037614;28;4071;-50
2023/03/26 01:48:29;;;;;;;;;;;;;;;;;;1037447;28;1864;-52
2023/03/26 01:49:00;;;;;;;;;;;;;;;;;;1036691;28;4006;-49
2023/03/26 01:49:30;;;;;;;;;;;;;;;;;;1036998;28;4064;-55
2023/03/26 01:50:01;;;;;;;;;;;;;;;;;;1039627;28;2923;-50
2023/03/26 01:50:31;;;;;;;;;;;;;;;;;;1037024;28;4068;-50
2023/03/26 01:51:02;;;;;;;;;;;;;;;;;;1038496;28;2830;-51
2023/03/26 01:51:34;;;;;;;;;;;;;;;;;;1039201;28;3868;-54
2023/03/26 01:52:10;;;;;;;;;;;;;;;;;;1036776;28;2646;-52
2023/03/26 01:52:40;;;;;;;;;;;;;;;;;;1037561;28;3988;-49
2023/03/26 01:53:12;;;;;;;;;;;;;;;;;;1039100;28;1812;-51
2023/03/26 01:53:43;;;;;;;;;;;;;;;;;;1039254;28;3893;-49
2023/03/26 01:54:16;;;;;;;;;;;;;;;;;;1035802;28;2699;-52
2023/03/26 01:54:46;;;;;;;;;;;;;;;;;;1037908;28;4055;-48
2023/03/26 01:55:17;;;;;;;;;;;;;;;;;;1036163;28;2899;-49
2023/03/26 01:55:54;;;;;;;;;;;;;;;;;;1038051;28;4041;-52
2023/03/26 01:56:48;;;;;;;;;;;;;;;;;;1038356;28;1736;-51
2023/03/26 01:57:41;;;;;;;;;;;;;;;;;;1035615;28;3860;-50
2023/03/26 01:58:28;;;;;;;;;;;;;;;;;;1038145;28;3895;-49
2023/03/26 01:59:17;;;;;;;;;;;;;;;;;;1035808;28;3961;-48
2023/03/26 01:59:47;;;;;;;;;;;;;;;;;;1037113;28;4970;-51
2023/03/26 02:00:22;;;;;;;;;;;;;;;;;;1039236;28;1740;-52
2023/03/26 02:01:04;;;;;;;;;;;;;;;;;;1036462;28;3861;-49
2023/03/26 02:01:43;;;;;;;;;;;;;;;;;;1036711;28;3819;-51
2023/03/26 02:02:32;;;;;;;;;;;;;;;;;;1035582;28;2957;-49
2023/03/26 02:03:05;;;;;;;;;;;;;;;;;;1035983;28;4112;-50
2023/03/26 02:03:43;;;;;;;;;;;;;;;;;;1036293;28;4054;-50
2023/03/26 02:04:17;;;;;;;;;;;;;;;;;;1036736;28;2631;-52
2023/03/26 02:05:06;;;;;;;;;;;;;;;;;;1036955;28;3824;-49
2023/03/26 02:05:40;;;;;;;;;;;;;;;;;;1037196;28;3892;-50
2023/03/26 02:06:29;;;;;;;;;;;;;;;;;;1039271;28;1789;-52
2023/03/26 02:07:06;;;;;;;;;;;;;;;;;;1034628;28;4348;-52
2023/03/26 02:07:39;;;;;;;;;;;;;;;;;;1037555;28;3968;-50
2023/03/26 02:08:15;;;;;;;;;;;;;;;;;;1037291;28;2723;-48
2023/03/26 02:08:57;;;;;;;;;;;;;;;;;;1036506;28;4086;-53
2023/03/26 02:09:31;;;;;;;;;;;;;;;;;;1037851;28;1610;-53
2023/03/26 02:10:05;;;;;;;;;;;;;;;;;;1035237;28;3857;-51
2023/03/26 02:10:39;;;;;;;;;;;;;;;;;;1037979;28;3968;-50
2023/03/26 02:11:11;;;;;;;;;;;;;;;;;;1037914;28;1782;-51
2023/03/26 02:11:42;;;;;;;;;;;;;;;;;;1038016;28;4229;-48
2023/03/26 02:12:13;;;;;;;;;;;;;;;;;;1036868;28;2872;-52
2023/03/26 02:12:43;;;;;;;;;;;;;;;;;;1035547;28;3981;-53
2023/03/26 02:13:14;;;;;;;;;;;;;;;;;;1035830;28;2658;-47
2023/03/26 02:13:45;;;;;;;;;;;;;;;;;;1038089;28;4119;-48
2023/03/26 02:14:15;;;;;;;;;;;;;;;;;;1037958;28;2236;-52
2023/03/26 02:14:45;;;;;;;;;;;;;;;;;;1036166;28;3894;-54
2023/03/26 02:15:16;;;;;;;;;;;;;;;;;;1036727;28;2597;-51
2023/03/26 02:15:55;;;;;;;;;;;;;;;;;;1036655;28;3870;-50
2023/03/26 02:16:26;;;;;;;;;;;;;;;;;;1038752;28;1852;-50
2023/03/26 02:16:57;;;;;;;;;;;;;;;;;;1036965;28;4127;-49
2023/03/26 02:17:28;;;;;;;;;;;;;;;;;;1037496;28;2945;-50
2023/03/26 02:18:00;;;;;;;;;;;;;;;;;;1038411;28;3731;-52
2023/03/26 02:18:40;;;;;;;;;;;;;;;;;;1034910;28;4155;-50
2023/03/26 02:19:14;;;;;;;;;;;;;;;;;;1037666;28;2729;-50
2023/03/26 02:19:44;;;;;;;;;;;;;;;;;;1036966;28;3957;-52
2023/03/26 02:20:17;;;;;;;;;;;;;;;;;;1037200;28;2284;-48
2023/03/26 02:20:47;;;;;;;;;;;;;;;;;;1037507;28;4068;-48
2023/03/26 02:21:20;;;;;;;;;;;;;;;;;;1038582;28;1635;-50
2023/03/26 02:21:50;;;;;;;;;;;;;;;;;;1036628;28;4119;-50
2023/03/26 02:22:21;;;;;;;;;;;;;;;;;;1036144;28;2705;-52
2023/03/26 02:22:51;;;;;;;;;;;;;;;;;;1036721;28;3795;-50
2023/03/26 02:23:21;;;;;;;;;;;;;;;;;;1036216;28;2222;-50
2023/03/26 02:24:02;;;;;;;;;;;;;;;;;;1034010;28;3880;-51
2023/03/26 02:24:32;;;;;;;;;;;;;;;;;;1035990;28;3795;-49
2023/03/26 02:25:03;;;;;;;;;;;;;;;;;;1035896;28;2896;-48
2023/03/26 02:25:34;;;;;;;;;;;;;;;;;;1038371;28;4046;-50
2023/03/26 02:26:05;;;;;;;;;;;;;;;;;;1036745;28;2267;-51
2023/03/26 02:26:36;;;;;;;;;;;;;;;;;;1037550;28;4011;-50
2023/03/26 02:27:07;;;;;;;;;;;;;;;;;;1035977;28;2888;-51
2023/03/26 02:27:39;;;;;;;;;;;;;;;;;;1035421;28;3989;-50
2023/03/26 02:28:09;;;;;;;;;;;;;;;;;;1035187;28;2458;-55
2023/03/26 02:28:39;;;;;;;;;;;;;;;;;;1034185;28;4335;-53
2023/03/26 02:29:11;;;;;;;;;;;;;;;;;;1037857;28;2687;-52
2023/03/26 02:29:41;;;;;;;;;;;;;;;;;;1038397;28;3996;-50
2023/03/26 02:30:14;;;;;;;;;;;;;;;;;;1036553;28;2653;-49
2023/03/26 02:30:44;;;;;;;;;;;;;;;;;;1037844;28;4047;-48
2023/03/26 02:31:16;;;;;;;;;;;;;;;;;;1038903;28;2143;-52
2023/03/26 02:31:49;;;;;;;;;;;;;;;;;;1038234;28;4016;-55
2023/03/26 02:32:19;;;;;;;;;;;;;;;;;;1036289;28;2199;-48
2023/03/26 02:32:51;;;;;;;;;;;;;;;;;;1037263;28;3828;-50
2023/03/26 02:33:21;;;;;;;;;;;;;;;;;;1039082;28;1761;-50
2023/03/26 02:33:52;;;;;;;;;;;;;;;;;;1038576;28;3851;-50
2023/03/26 02:34:22;;;;;;;;;;;;;;;;;;1034028;28;3315;-50
2023/03/26 02:34:53;;;;;;;;;;;;;;;;;;1038740;28;3821;-50
2023/03/26 02:35:23;;;;;;;;;;;;;;;;;;1035442;28;2815;-49
2023/03/26 02:35:53;;;;;;;;;;;;;;;;;;1036541;28;3818;-49
2023/03/26 02:36:28;;;;;;;;;;;;;;;;;;1038850;28;1821;-51
2023/03/26 02:36:58;;;;;;;;;;;;;;;;;;1036272;28;3900;-51
2023/03/26 02:37:29;;;;;;;;;;;;;;;;;;1037082;28;3055;-51
2023/03/26 02:38:00;;;;;;;;;;;;;;;;;;1037079;28;3816;-50
2023/03/26 02:38:36;;;;;;;;;;;;;;;;;;1033987;28;2775;-50
2023/03/26 02:39:08;;;;;;;;;;;;;;;;;;1034697;28;3931;-49
2023/03/26 02:39:38;;;;;;;;;;;;;;;;;;1037017;28;3983;-52
2023/03/26 02:40:10;;;;;;;;;;;;;;;;;;1035443;28;1911;-50
2023/03/26 02:40:40;;;;;;;;;;;;;;;;;;1034357;28;3902;-47
2023/03/26 02:41:11;;;;;;;;;;;;;;;;;;1036427;28;2639;-48
2023/03/26 02:41:41;;;;;;;;;;;;;;;;;;1037905;28;3967;-52
2023/03/26 02:42:11;;;;;;;;;;;;;;;;;;1036670;28;2832;-52
2023/03/26 02:42:41;;;;;;;;;;;;;;;;;;1034646;28;3953;-49
2023/03/26 02:43:12;;;;;;;;;;;;;;;;;;1037156;28;1907;-49
2023/03/26 02:43:42;;;;;;;;;;;;;;;;;;1038479;28;3986;-49
2023/03/26 02:44:13;;;;;;;;;;;;;;;;;;1036480;28;2799;-50
2023/03/26 02:44:43;;;;;;;;;;;;;;;;;;1038572;28;3812;-50
2023/03/26 02:45:14;;;;;;;;;;;;;;;;;;1035410;28;2955;-49
2023/03/26 02:45:45;;;;;;;;;;;;;;;;;;1037503;28;4130;-48
2023/03/26 02:46:15;;;;;;;;;;;;;;;;;;1034678;28;2925;-52
2023/03/26 02:46:46;;;;;;;;;;;;;;;;;;1037603;28;4243;-51
2023/03/26 02:47:16;;;;;;;;;;;;;;;;;;1037993;28;2841;-50
2023/03/26 02:47:46;;;;;;;;;;;;;;;;;;1037774;28;3892;-51
2023/03/26 02:48:17;;;;;;;;;;;;;;;;;;1038320;28;1800;-51
2023/03/26 02:48:48;;;;;;;;;;;;;;;;;;1036585;28;4166;-51
2023/03/26 02:49:19;;;;;;;;;;;;;;;;;;1038185;28;3008;-53
2023/03/26 02:49:49;;;;;;;;;;;;;;;;;;1038963;28;4064;-50
2023/03/26 02:50:19;;;;;;;;;;;;;;;;;;1038363;28;1798;-50
2023/03/26 02:50:53;;;;;;;;;;;;;;;;;;1038710;28;3949;-50
2023/03/26 02:51:24;;;;;;;;;;;;;;;;;;1037665;28;3028;-49
2023/03/26 02:51:55;;;;;;;;;;;;;;;;;;1039511;28;3832;-50
2023/03/26 02:52:25;;;;;;;;;;;;;;;;;;1037927;28;2698;-53
2023/03/26 02:52:55;;;;;;;;;;;;;;;;;;1037519;28;4029;-53
2023/03/26 02:53:28;;;;;;;;;;;;;;;;;;1037454;28;2370;-52
2023/03/26 02:53:59;;;;;;;;;;;;;;;;;;1036143;28;4019;-53
2023/03/26 02:54:30;;;;;;;;;;;;;;;;;;1035739;28;2897;-49
2023/03/26 02:55:00;;;;;;;;;;;;;;;;;;1035505;28;3797;-52
2023/03/26 02:55:31;;;;;;;;;;;;;;;;;;1035895;28;3930;-50
2023/03/26 02:56:01;;;;;;;;;;;;;;;;;;1037697;28;2784;-51
2023/03/26 02:56:32;;;;;;;;;;;;;;;;;;1037142;28;4061;-48
2023/03/26 02:57:02;;;;;;;;;;;;;;;;;;1037426;28;2177;-48
2023/03/26 02:57:33;;;;;;;;;;;;;;;;;;1037425;28;3817;-51
2023/03/26 02:58:03;;;;;;;;;;;;;;;;;;1037646;28;2867;-50
2023/03/26 02:58:33;;;;;;;;;;;;;;;;;;1039734;28;4084;-52
2023/03/26 02:59:03;;;;;;;;;;;;;;;;;;1035879;28;2504;-52
2023/03/26 02:59:34;;;;;;;;;;;;;;;;;;1037687;28;4814;-47
2023/03/26 03:00:13;;;;;;;;;;;;;;;;;;1034364;28;3473;-50
2023/03/26 03:00:45;;;;;;;;;;;;;;;;;;1037416;28;4064;-50
2023/03/26 03:01:17;;;;;;;;;;;;;;;;;;1038018;28;2763;-50
2023/03/26 03:01:47;;;;;;;;;;;;;;;;;;1037528;28;4065;-52
2023/03/26 03:02:18;;;;;;;;;;;;;;;;;;1038253;28;2747;-49
2023/03/26 03:02:49;;;;;;;;;;;;;;;;;;1036840;28;3910;-51
2023/03/26 03:03:23;;;;;;;;;;;;;;;;;;1039176;28;2042;-49
2023/03/26 03:03:53;;;;;;;;;;;;;;;;;;1038378;28;3926;-50
2023/03/26 03:04:23;;;;;;;;;;;;;;;;;;1034819;28;2741;-53
2023/03/26 03:05:00;;;;;;;;;;;;;;;;;;1036528;28;3856;-52
2023/03/26 03:05:31;;;;;;;;;;;;;;;;;;1037642;28;2330;-48
2023/03/26 03:06:01;;;;;;;;;;;;;;;;;;1039402;28;3862;-51
2023/03/26 03:06:31;;;;;;;;;;;;;;;;;;1037632;28;4104;-51
2023/03/26 03:07:02;;;;;;;;;;;;;;;;;;1037424;28;2999;-51
2023/03/26 03:07:36;;;;;;;;;;;;;;;;;;1039110;28;4254;-51
2023/03/26 03:08:06;;;;;;;;;;;;;;;;;;1039307;28;1849;-52
2023/03/26 03:08:37;;;;;;;;;;;;;;;;;;1038089;28;3965;-50
2023/03/26 03:09:07;;;;;;;;;;;;;;;;;;1037322;28;2091;-52
2023/03/26 03:09:37;;;;;;;;;;;;;;;;;;1037814;28;3914;-51
2023/03/26 03:10:08;;;;;;;;;;;;;;;;;;1039993;28;1669;-50
2023/03/26 03:10:39;;;;;;;;;;;;;;;;;;1038100;28;3904;-51
2023/03/26 03:11:10;;;;;;;;;;;;;;;;;;1033141;28;2998;-50
2023/03/26 03:11:40;;;;;;;;;;;;;;;;;;1035116;28;4077;-50
2023/03/26 03:12:11;;;;;;;;;;;;;;;;;;1036417;28;2291;-51
2023/03/26 03:12:41;;;;;;;;;;;;;;;;;;1034707;28;4035;-50
2023/03/26 03:13:11;;;;;;;;;;;;;;;;;;1033706;28;3267;-52
2023/03/26 03:13:43;;;;;;;;;;;;;;;;;;1034773;28;3889;-50
2023/03/26 03:14:13;;;;;;;;;;;;;;;;;;1036548;28;2782;-51
2023/03/26 03:14:43;;;;;;;;;;;;;;;;;;1038602;28;4401;-50
2023/03/26 03:15:13;;;;;;;;;;;;;;;;;;1037109;28;2653;-50
2023/03/26 03:15:44;;;;;;;;;;;;;;;;;;1032965;28;3988;-51
2023/03/26 03:16:14;;;;;;;;;;;;;;;;;;1034521;28;2901;-52
2023/03/26 03:16:44;;;;;;;;;;;;;;;;;;1037628;28;4119;-50
2023/03/26 03:17:15;;;;;;;;;;;;;;;;;;1036672;28;2805;-53
2023/03/26 03:17:45;;;;;;;;;;;;;;;;;;1036602;28;3822;-52
2023/03/26 03:18:16;;;;;;;;;;;;;;;;;;1036975;28;2816;-49
2023/03/26 03:18:53;;;;;;;;;;;;;;;;;;1038224;28;3808;-53
2023/03/26 03:19:23;;;;;;;;;;;;;;;;;;1038472;28;1787;-51
2023/03/26 03:19:53;;;;;;;;;;;;;;;;;;1039170;28;3816;-50
2023/03/26 03:20:23;;;;;;;;;;;;;;;;;;1037866;28;3026;-51
2023/03/26 03:20:54;;;;;;;;;;;;;;;;;;1036772;28;3845;-50
2023/03/26 03:21:26;;;;;;;;;;;;;;;;;;1037949;28;2187;-51
2023/03/26 03:21:56;;;;;;;;;;;;;;;;;;1037804;28;3972;-50
2023/03/26 03:22:27;;;;;;;;;;;;;;;;;;1038285;28;3010;-50
2023/03/26 03:22:57;;;;;;;;;;;;;;;;;;1036658;28;4007;-48
2023/03/26 03:23:27;;;;;;;;;;;;;;;;;;1038776;28;2083;-51
2023/03/26 03:23:57;;;;;;;;;;;;;;;;;;1037724;28;3865;-51
2023/03/26 03:24:28;;;;;;;;;;;;;;;;;;1035892;28;2933;-51
2023/03/26 03:24:58;;;;;;;;;;;;;;;;;;1039381;28;3939;-51
2023/03/26 03:25:29;;;;;;;;;;;;;;;;;;1035192;28;2841;-52
2023/03/26 03:25:59;;;;;;;;;;;;;;;;;;1037719;28;3959;-51
2023/03/26 03:26:29;;;;;;;;;;;;;;;;;;1038176;28;2344;-51
2023/03/26 03:26:59;;;;;;;;;;;;;;;;;;1037670;28;4050;-50
2023/03/26 03:27:30;;;;;;;;;;;;;;;;;;1038246;28;2221;-51
2023/03/26 03:28:00;;;;;;;;;;;;;;;;;;1037635;28;3827;-52
2023/03/26 03:28:31;;;;;;;;;;;;;;;;;;1035195;28;4418;-48
2023/03/26 03:29:01;;;;;;;;;;;;;;;;;;1037301;28;1820;-50
2023/03/26 03:29:32;;;;;;;;;;;;;;;;;;1039168;28;4038;-51
2023/03/26 03:30:03;;;;;;;;;;;;;;;;;;1037573;28;2587;-52
2023/03/26 03:30:33;;;;;;;;;;;;;;;;;;1036715;28;4115;-50
2023/03/26 03:31:04;;;;;;;;;;;;;;;;;;1038348;28;2622;-51
2023/03/26 03:31:34;;;;;;;;;;;;;;;;;;1037805;28;4181;-54
2023/03/26 03:32:04;;;;;;;;;;;;;;;;;;1038894;28;1520;-53
2023/03/26 03:32:35;;;;;;;;;;;;;;;;;;1038187;28;4184;-53
2023/03/26 03:33:05;;;;;;;;;;;;;;;;;;1038447;28;2827;-50
2023/03/26 03:33:35;;;;;;;;;;;;;;;;;;1037700;28;4029;-49
2023/03/26 03:34:05;;;;;;;;;;;;;;;;;;1038135;28;1879;-49
2023/03/26 03:34:37;;;;;;;;;;;;;;;;;;1034880;28;3897;-54
2023/03/26 03:35:07;;;;;;;;;;;;;;;;;;1037346;28;1730;-53
2023/03/26 03:35:38;;;;;;;;;;;;;;;;;;1036783;28;4345;-50
2023/03/26 03:36:10;;;;;;;;;;;;;;;;;;1036278;28;3568;-48
2023/03/26 03:36:40;;;;;;;;;;;;;;;;;;1038667;28;3983;-52
2023/03/26 03:37:10;;;;;;;;;;;;;;;;;;1039507;28;1621;-53
2023/03/26 03:37:41;;;;;;;;;;;;;;;;;;1039067;28;4206;-51
2023/03/26 03:38:11;;;;;;;;;;;;;;;;;;1038443;28;2364;-48
2023/03/26 03:38:41;;;;;;;;;;;;;;;;;;1033910;28;4086;-50
2023/03/26 03:39:12;;;;;;;;;;;;;;;;;;1035324;28;1961;-51
2023/03/26 03:39:42;;;;;;;;;;;;;;;;;;1033488;28;4051;-54
2023/03/26 03:40:12;;;;;;;;;;;;;;;;;;1036186;28;1763;-49
2023/03/26 03:40:43;;;;;;;;;;;;;;;;;;1034324;28;4960;-50
2023/03/26 03:41:13;;;;;;;;;;;;;;;;;;1036048;28;3059;-49
2023/03/26 03:41:44;;;;;;;;;;;;;;;;;;1036206;28;4184;-51
2023/03/26 03:42:14;;;;;;;;;;;;;;;;;;1036988;28;2747;-51
2023/03/26 03:42:45;;;;;;;;;;;;;;;;;;1038949;28;4176;-47
2023/03/26 03:43:15;;;;;;;;;;;;;;;;;;1037119;28;2695;-49
2023/03/26 03:43:45;;;;;;;;;;;;;;;;;;1038037;28;3798;-48
2023/03/26 03:44:16;;;;;;;;;;;;;;;;;;1037734;28;2217;-52
2023/03/26 03:44:46;;;;;;;;;;;;;;;;;;1037751;28;3947;-52
2023/03/26 03:45:17;;;;;;;;;;;;;;;;;;1038414;28;2762;-50
2023/03/26 03:45:47;;;;;;;;;;;;;;;;;;1037651;28;4032;-51
2023/03/26 03:46:17;;;;;;;;;;;;;;;;;;1036546;28;1952;-50